Time;durP1;ratioP1;P1;durP2;ratioP2;P2;SDS_P1;SDS_P2;PMS_P1;PMS_P2;Temp;Humidity;BMP_temperature;BMP_pressure;BME280_temperature;BME280_humidity;BME280_pressure;Samples;Min_cycle;Max_cycle;Signal;HPM_P1;HPM_P2
2022/08/20 00:00:16;;;;;;;;;;;;;;;22.64;61.79;100515.00;5051134;28;20642;-75
2022/08/20 00:03:26;;;;;;;;;;;;;;;22.60;61.53;100503.00;5050246;28;19931;-75
2022/08/20 00:06:29;;;;;;;;;;;;;;;22.47;63.34;100517.59;5050938;28;19920;-75
2022/08/20 00:09:33;;;;;;;;;;;;;;;22.58;62.78;100510.31;5050533;28;20423;-74
2022/08/20 00:12:44;;;;;;;;;;;;;;;22.27;63.79;100511.66;5050390;28;20423;-75
2022/08/20 00:15:47;;;;;;;;;;;;;;;22.37;63.89;100519.53;5050008;28;19963;-75
2022/08/20 00:18:51;;;;;;;;;;;;;;;22.46;64.07;100518.59;5049584;28;20027;-75
2022/08/20 00:21:57;;;;;;;;;;;;;;;22.43;63.73;100521.56;5049957;28;20516;-75
2022/08/20 00:25:05;;;;;;;;;;;;;;;22.37;63.86;100519.53;5050783;28;19951;-75
2022/08/20 00:28:10;;;;;;;;;;;;;;;22.50;62.98;100525.28;5050856;28;20318;-75
2022/08/20 00:31:16;;;;;;;;;;;;;;;22.59;62.61;100525.31;5050366;28;19922;-75
2022/08/20 00:34:20;;;;;;;;;;;;;;;22.59;62.86;100511.97;5049653;28;19990;-75
2022/08/20 00:37:23;;;;;;;;;;;;;;;22.46;63.57;100515.06;5050117;28;19923;-75
2022/08/20 00:40:33;;;;;;;;;;;;;;;22.39;64.15;100520.19;5049923;28;19935;-76
2022/08/20 00:43:39;;;;;;;;;;;;;;;22.16;65.09;100521.72;5049913;28;19942;-75
2022/08/20 00:46:43;;;;;;;;;;;;;;;22.39;64.45;100527.34;5049254;28;19974;-75
2022/08/20 00:49:47;;;;;;;;;;;;;;;22.42;64.20;100525.22;5049523;28;19924;-75
2022/08/20 00:52:51;;;;;;;;;;;;;;;22.27;65.10;100524.09;5037398;28;20032;-75
2022/08/20 00:55:55;;;;;;;;;;;;;;;22.29;64.61;100522.97;5049976;28;20275;-74
2022/08/20 00:58:58;;;;;;;;;;;;;;;22.18;64.97;100523.22;5049781;28;19962;-75
2022/08/20 01:02:06;;;;;;;;;;;;;;;22.14;65.22;100524.47;5048642;28;19927;-75
2022/08/20 01:05:12;;;;;;;;;;;;;;;22.23;65.19;100528.06;5049219;28;19958;-75
2022/08/20 01:08:18;;;;;;;;;;;;;;;22.12;65.65;100536.31;5048906;28;19927;-75
2022/08/20 01:11:29;;;;;;;;;;;;;;;22.04;65.99;100535.22;5049498;28;19919;-75
2022/08/20 01:17:42;;;;;;;;;;;;;;;22.00;66.43;100533.03;5049373;28;19924;-75
2022/08/20 01:20:53;;;;;;;;;;;;;;;22.21;65.77;100538.06;5049164;28;20283;-75
2022/08/20 01:24:20;;;;;;;;;;;;;;;22.09;65.80;100536.59;5048930;28;19970;-75
2022/08/20 01:27:23;;;;;;;;;;;;;;;21.91;66.70;100534.78;5048995;28;19924;-75
2022/08/20 01:30:27;;;;;;;;;;;;;;;22.03;66.20;100541.53;5049113;28;19974;-75
2022/08/20 01:33:31;;;;;;;;;;;;;;;21.99;66.71;100539.34;5049039;28;19975;-75
2022/08/20 01:36:49;;;;;;;;;;;;;;;21.77;67.75;100538.00;5036622;28;19919;-75
2022/08/20 01:39:53;;;;;;;;;;;;;;;21.88;67.49;100545.75;5050293;28;20031;-75
2022/08/20 01:42:58;;;;;;;;;;;;;;;21.81;67.66;100537.53;5049269;28;20422;-75
2022/08/20 01:46:04;;;;;;;;;;;;;;;21.88;67.50;100535.09;5047897;28;20686;-75
2022/08/20 01:49:14;;;;;;;;;;;;;;;21.92;67.42;100540.94;5048694;28;19924;-75
2022/08/20 01:52:35;;;;;;;;;;;;;;;21.73;68.22;100542.78;5048973;28;20412;-75
2022/08/20 01:55:44;;;;;;;;;;;;;;;21.69;68.48;100545.91;5048990;28;19920;-75
2022/08/20 01:58:49;;;;;;;;;;;;;;;21.66;68.73;100554.19;5049246;28;20382;-75
2022/08/20 02:01:53;;;;;;;;;;;;;;;21.73;68.47;100548.13;5049672;28;19938;-75
2022/08/20 02:04:59;;;;;;;;;;;;;;;21.71;68.37;100552.75;5048554;28;20608;-76
2022/08/20 02:08:05;;;;;;;;;;;;;;;21.78;68.47;100552.97;5048896;28;19924;-76
2022/08/20 02:11:11;;;;;;;;;;;;;;;21.69;69.02;100546.72;5049903;28;20413;-75
2022/08/20 02:14:16;;;;;;;;;;;;;;;21.75;68.84;100545.28;5050864;28;19920;-75
2022/08/20 02:17:24;;;;;;;;;;;;;;;21.84;68.61;100541.72;5051309;28;19919;-75
2022/08/20 02:20:29;;;;;;;;;;;;;;;21.58;69.55;100545.13;5051719;28;19919;-75
2022/08/20 02:23:32;;;;;;;;;;;;;;;21.60;69.47;100550.28;5052853;28;19934;-75
2022/08/20 02:26:39;;;;;;;;;;;;;;;21.62;69.49;100551.00;5039751;28;20011;-75
2022/08/20 02:29:42;;;;;;;;;;;;;;;21.68;69.67;100549.56;5052703;28;19923;-75
2022/08/20 02:32:49;;;;;;;;;;;;;;;21.72;69.91;100551.75;5052607;28;19923;-74
2022/08/20 02:35:55;;;;;;;;;;;;;;;21.61;70.12;100554.66;5051967;28;19920;-75
2022/08/20 02:38:58;;;;;;;;;;;;;;;21.63;69.88;100546.50;5052160;28;20386;-74
2022/08/20 02:42:03;;;;;;;;;;;;;;;21.72;69.56;100545.59;5051575;28;19958;-75
2022/08/20 02:45:09;;;;;;;;;;;;;;;21.71;69.22;100549.25;5051060;28;19935;-75
2022/08/20 02:48:19;;;;;;;;;;;;;;;21.61;69.43;100559.97;5039756;28;19927;-76
2022/08/20 02:51:22;;;;;;;;;;;;;;;21.65;69.66;100561.34;5052181;28;20406;-75
2022/08/20 02:54:26;;;;;;;;;;;;;;;21.76;69.38;100558.47;5052692;28;19967;-75
2022/08/20 02:57:31;;;;;;;;;;;;;;;21.71;69.82;100549.25;5031858;28;19928;-75
2022/08/20 03:00:34;;;;;;;;;;;;;;;21.50;71.04;100554.84;5032165;28;19920;-75
2022/08/20 03:03:41;;;;;;;;;;;;;;;21.41;71.72;100559.25;5031428;28;19988;-76
2022/08/20 03:06:48;;;;;;;;;;;;;;;21.47;71.68;100552.47;5031222;28;19959;-76
2022/08/20 03:09:51;;;;;;;;;;;;;;;21.53;72.16;100557.22;5040058;28;19971;-75
2022/08/20 03:12:55;;;;;;;;;;;;;;;21.47;72.79;100548.00;5051443;28;20031;-75
2022/08/20 03:15:59;;;;;;;;;;;;;;;21.51;73.07;100554.72;5051498;28;19961;-75
2022/08/20 03:19:08;;;;;;;;;;;;;;;21.54;73.22;100566.88;5051908;28;20357;-75
2022/08/20 03:22:14;;;;;;;;;;;;;;;21.49;73.63;100561.16;5051614;28;19993;-75
2022/08/20 03:25:17;;;;;;;;;;;;;;;21.45;74.14;100560.63;5051122;28;20286;-75
2022/08/20 03:28:21;;;;;;;;;;;;;;;21.51;74.38;100564.53;5050809;28;20002;-76
2022/08/20 03:31:24;;;;;;;;;;;;;;;21.38;75.27;100574.66;5051387;28;20379;-76
2022/08/20 03:34:28;;;;;;;;;;;;;;;21.49;74.73;100572.63;5051074;28;19923;-75
2022/08/20 03:37:33;;;;;;;;;;;;;;;21.37;75.51;100573.81;5050466;28;19920;-76
2022/08/20 03:40:37;;;;;;;;;;;;;;;21.39;75.22;100582.50;5051205;28;19920;-76
2022/08/20 03:43:40;;;;;;;;;;;;;;;21.38;75.48;100577.31;5051352;28;19940;-75
2022/08/20 03:46:47;;;;;;;;;;;;;;;21.41;75.48;100580.53;5061466;28;20551;-75
2022/08/20 03:49:56;;;;;;;;;;;;;;;21.41;75.64;100583.22;5051214;28;19954;-75
2022/08/20 03:53:00;;;;;;;;;;;;;;;21.39;75.62;100587.00;5050725;28;19920;-75
2022/08/20 03:56:04;;;;;;;;;;;;;;;21.42;75.52;100592.00;5050465;28;19926;-75
2022/08/20 03:59:07;;;;;;;;;;;;;;;21.37;75.68;100592.44;5048988;28;20298;-75
2022/08/20 04:02:11;;;;;;;;;;;;;;;21.32;76.33;100582.22;5050823;28;19919;-75
2022/08/20 04:05:14;;;;;;;;;;;;;;;21.28;76.39;100580.00;5050972;28;19943;-75
2022/08/20 04:08:25;;;;;;;;;;;;;;;21.26;76.28;100587.31;5050402;28;20474;-74
2022/08/20 04:11:28;;;;;;;;;;;;;;;21.18;76.74;100582.72;5050797;28;19928;-75
2022/08/20 04:14:34;;;;;;;;;;;;;;;21.22;76.69;100586.78;5051000;28;19923;-75
2022/08/20 04:17:40;;;;;;;;;;;;;;;21.17;76.80;100588.19;5050781;28;20013;-75
2022/08/20 04:20:43;;;;;;;;;;;;;;;21.11;76.92;100585.13;5049356;28;20322;-74
2022/08/20 04:23:47;;;;;;;;;;;;;;;21.14;76.61;100598.13;5050273;28;20268;-74
2022/08/20 04:26:51;;;;;;;;;;;;;;;21.19;76.40;100599.53;5049494;28;19942;-74
2022/08/20 04:29:58;;;;;;;;;;;;;;;21.07;77.13;100605.00;5049835;28;19944;-74
2022/08/20 04:33:02;;;;;;;;;;;;;;;21.07;77.19;100594.38;5050174;28;20054;-75
2022/08/20 04:43:27;;;;;;;;;;;;;;;21.02;76.92;100591.31;5050630;28;19923;-74
2022/08/20 04:46:34;;;;;;;;;;;;;;;21.00;77.26;100601.28;5050708;28;19996;-74
2022/08/20 04:49:46;;;;;;;;;;;;;;;20.98;77.63;100595.25;5049748;28;20321;-74
2022/08/20 04:52:49;;;;;;;;;;;;;;;21.01;77.09;100597.63;5049720;28;19920;-74
2022/08/20 04:55:55;;;;;;;;;;;;;;;20.98;77.30;100597.91;5049260;28;20393;-74
2022/08/20 04:59:01;;;;;;;;;;;;;;;21.02;77.42;100604.59;5049409;28;19958;-74
2022/08/20 05:02:04;;;;;;;;;;;;;;;21.04;77.48;100600.00;5048347;28;19919;-75
2022/08/20 05:05:09;;;;;;;;;;;;;;;20.99;77.48;100607.56;5048607;28;19958;-73
2022/08/20 05:08:13;;;;;;;;;;;;;;;20.96;77.85;100607.84;5049847;28;19924;-72
2022/08/20 05:11:16;;;;;;;;;;;;;;;20.96;78.14;100613.16;5050166;28;19920;-73
2022/08/20 05:14:19;;;;;;;;;;;;;;;21.10;77.85;100620.69;5049299;28;20370;-74
2022/08/20 05:17:23;;;;;;;;;;;;;;;21.06;77.83;100619.31;5049635;28;19927;-76
2022/08/20 05:20:29;;;;;;;;;;;;;;;21.02;78.32;100623.22;5048586;28;19915;-75
2022/08/20 05:23:36;;;;;;;;;;;;;;;21.08;78.27;100622.63;5049107;28;19919;-75
2022/08/20 05:26:39;;;;;;;;;;;;;;;21.08;78.17;100624.47;5049066;28;19919;-75
2022/08/20 05:29:42;;;;;;;;;;;;;;;21.08;78.15;100622.63;5050063;28;20420;-75
2022/08/20 05:32:48;;;;;;;;;;;;;;;21.05;78.37;100622.94;5052605;28;19974;-75
2022/08/20 05:35:52;;;;;;;;;;;;;;;21.16;77.69;100626.41;5069302;28;20107;-75
2022/08/20 05:38:58;;;;;;;;;;;;;;;21.03;77.96;100624.91;5056568;28;19962;-75
2022/08/20 05:42:02;;;;;;;;;;;;;;;21.10;77.48;100630.47;5068960;28;19919;-75
2022/08/20 05:45:08;;;;;;;;;;;;;;;21.18;77.20;100621.75;5071088;28;19919;-75
2022/08/20 05:48:15;;;;;;;;;;;;;;;20.94;79.42;100633.75;5055671;28;19939;-75
2022/08/20 05:51:18;;;;;;;;;;;;;;;21.01;79.27;100631.34;5052014;28;20331;-75
2022/08/20 05:54:22;;;;;;;;;;;;;;;21.11;78.82;100635.63;5053667;28;19912;-74
2022/08/20 05:57:29;;;;;;;;;;;;;;;21.13;78.73;100635.50;5052619;28;20069;-74
2022/08/20 06:00:36;;;;;;;;;;;;;;;21.24;78.05;100631.81;5053495;28;19912;-74
2022/08/20 06:07:04;;;;;;;;;;;;;;;21.18;78.36;100643.03;5060380;28;19915;-74
2022/08/20 06:10:07;;;;;;;;;;;;;;;21.13;78.44;100641.66;5073051;28;19947;-74
2022/08/20 06:13:11;;;;;;;;;;;;;;;21.02;79.16;100643.66;5072837;28;20392;-74
2022/08/20 06:16:14;;;;;;;;;;;;;;;21.05;78.78;100646.84;5058924;28;20290;-75
2022/08/20 06:19:18;;;;;;;;;;;;;;;21.31;77.47;100648.84;5052424;28;19938;-75
2022/08/20 06:22:21;;;;;;;;;;;;;;;21.28;77.22;100643.81;5052193;28;19951;-74
2022/08/20 06:25:33;;;;;;;;;;;;;;;21.49;75.66;100641.81;5052262;28;20065;-74
2022/08/20 06:28:37;;;;;;;;;;;;;;;21.54;75.48;100650.19;5052389;28;19943;-75
2022/08/20 06:31:40;;;;;;;;;;;;;;;21.62;72.38;100648.59;5052827;28;19920;-74
2022/08/20 06:34:47;;;;;;;;;;;;;;;21.48;71.77;100641.97;5032864;28;20607;-75
2022/08/20 06:37:51;;;;;;;;;;;;;;;21.25;72.19;100649.44;5032032;28;19963;-75
2022/08/20 06:40:55;;;;;;;;;;;;;;;21.13;72.92;100646.16;5032296;28;20002;-74
2022/08/20 06:43:59;;;;;;;;;;;;;;;21.12;72.68;100634.69;5031228;28;20016;-74
2022/08/20 06:47:03;;;;;;;;;;;;;;;21.21;71.87;100640.09;5031666;28;19922;-75
2022/08/20 06:50:12;;;;;;;;;;;;;;;20.87;72.90;100645.94;5032416;28;19939;-74
2022/08/20 06:53:17;;;;;;;;;;;;;;;20.97;72.93;100641.44;5032051;28;20361;-74
2022/08/20 06:56:20;;;;;;;;;;;;;;;21.06;72.48;100645.88;5031256;28;19920;-74
2022/08/20 06:59:27;;;;;;;;;;;;;;;20.89;72.82;100639.47;5031476;28;20472;-73
2022/08/20 07:02:30;;;;;;;;;;;;;;;20.94;72.70;100641.72;5032079;28;20195;-74
2022/08/20 07:05:37;;;;;;;;;;;;;;;20.76;73.53;100643.44;5031293;28;19923;-74
2022/08/20 07:08:41;;;;;;;;;;;;;;;20.89;73.26;100638.66;5030132;28;19923;-74
2022/08/20 07:11:44;;;;;;;;;;;;;;;20.95;73.04;100639.91;5031409;28;19967;-75
2022/08/20 07:14:48;;;;;;;;;;;;;;;20.86;73.29;100646.91;5011671;28;20004;-74
2022/08/20 07:17:52;;;;;;;;;;;;;;;21.08;72.55;100649.22;5012113;28;20051;-74
2022/08/20 07:20:55;;;;;;;;;;;;;;;21.15;72.20;100654.78;5011763;28;20466;-75
2022/08/20 07:23:59;;;;;;;;;;;;;;;21.06;72.24;100661.84;5011236;28;19921;-75
2022/08/20 07:27:03;;;;;;;;;;;;;;;21.35;71.67;100660.94;5017645;28;19935;-75
2022/08/20 07:33:36;;;;;;;;;;;;;;;21.06;72.08;100659.19;5042007;28;20397;-74
2022/08/20 07:36:40;;;;;;;;;;;;;;;21.02;72.25;100656.94;5038511;28;19931;-75
2022/08/20 07:39:47;;;;;;;;;;;;;;;21.34;70.98;100652.06;5050824;28;19981;-75
2022/08/20 07:42:51;;;;;;;;;;;;;;;21.41;70.79;100659.47;5049871;28;19963;-75
2022/08/20 07:45:56;;;;;;;;;;;;;;;21.56;70.19;100668.66;5050473;28;19919;-75
2022/08/20 07:48:59;;;;;;;;;;;;;;;21.65;69.78;100662.44;5050232;28;19924;-75
2022/08/20 07:52:03;;;;;;;;;;;;;;;21.47;70.37;100670.38;5050387;28;20003;-75
2022/08/20 07:55:11;;;;;;;;;;;;;;;21.38;70.62;100665.97;5049548;28;19955;-75
2022/08/20 07:58:16;;;;;;;;;;;;;;;21.35;70.67;100661.75;5051023;28;20270;-75
2022/08/20 08:01:20;;;;;;;;;;;;;;;21.30;71.60;100657.81;5053925;28;19977;-75
2022/08/20 08:04:24;;;;;;;;;;;;;;;21.70;69.74;100664.69;5030406;28;19919;-74
2022/08/20 08:07:27;;;;;;;;;;;;;;;21.83;69.59;100657.16;5029641;28;19920;-74
2022/08/20 08:10:31;;;;;;;;;;;;;;;21.95;68.89;100658.63;5033145;28;19970;-74
2022/08/20 08:13:36;;;;;;;;;;;;;;;21.94;69.20;100656.09;5050386;28;19936;-74
2022/08/20 08:16:44;;;;;;;;;;;;;;;22.14;67.97;100654.13;5050071;28;20374;-74
2022/08/20 08:19:48;;;;;;;;;;;;;;;22.28;66.79;100643.00;5054829;28;20429;-74
2022/08/20 08:22:52;;;;;;;;;;;;;;;22.15;66.96;100661.16;5030400;28;19980;-74
2022/08/20 08:25:55;;;;;;;;;;;;;;;21.96;67.56;100644.31;5029533;28;19920;-74
2022/08/20 08:29:01;;;;;;;;;;;;;;;22.41;66.25;100640.78;5029811;28;20383;-75
2022/08/20 08:32:05;;;;;;;;;;;;;;;22.63;64.91;100646.59;5017085;28;19967;-75
2022/08/20 08:35:08;;;;;;;;;;;;;;;22.88;63.80;100635.13;5010766;28;19924;-75
2022/08/20 08:38:12;;;;;;;;;;;;;;;22.91;63.51;100644.59;5013937;28;19987;-75
2022/08/20 08:41:18;;;;;;;;;;;;;;;22.57;64.01;100649.88;5030780;28;19955;-75
2022/08/20 08:44:23;;;;;;;;;;;;;;;22.74;63.61;100641.00;5029625;28;20039;-75
2022/08/20 08:47:36;;;;;;;;;;;;;;;22.74;63.13;100644.50;5029496;28;19943;-75
2022/08/20 08:50:41;;;;;;;;;;;;;;;22.55;63.94;100646.53;5027083;28;19959;-74
2022/08/20 08:53:46;;;;;;;;;;;;;;;22.41;64.45;100648.75;5028930;28;20406;-74
2022/08/20 08:56:50;;;;;;;;;;;;;;;21.82;64.70;100658.13;5029991;28;19920;-74
2022/08/20 08:59:55;;;;;;;;;;;;;;;21.57;64.45;100655.22;5040043;28;19939;-76
2022/08/20 09:03:07;;;;;;;;;;;;;;;21.69;63.70;100658.50;5029813;28;19920;-73
2022/08/20 09:06:17;;;;;;;;;;;;;;;21.83;62.21;100654.50;5040110;28;20421;-73
2022/08/20 09:09:23;;;;;;;;;;;;;;;22.19;60.82;100646.56;5017272;28;19967;-73
2022/08/20 09:12:27;;;;;;;;;;;;;;;22.44;59.89;100637.78;5029434;28;20346;-75
2022/08/20 09:15:30;;;;;;;;;;;;;;;22.70;58.92;100632.50;5017439;28;19939;-74
2022/08/20 09:18:35;;;;;;;;;;;;;;;22.87;58.03;100633.41;5029109;28;19920;-74
2022/08/20 09:21:38;;;;;;;;;;;;;;;23.00;56.10;100632.19;5029155;28;20058;-74
2022/08/20 09:24:42;;;;;;;;;;;;;;;23.12;55.69;100630.94;5029560;28;20020;-75
2022/08/20 09:27:45;;;;;;;;;;;;;;;23.23;55.46;100627.13;5029226;28;20040;-75
2022/08/20 09:30:48;;;;;;;;;;;;;;;23.35;53.70;100626.69;5009200;28;20051;-74
2022/08/20 09:33:52;;;;;;;;;;;;;;;23.58;53.76;100629.63;5022857;28;20024;-74
2022/08/20 09:36:55;;;;;;;;;;;;;;;23.59;53.65;100622.47;5046256;28;19974;-74
2022/08/20 09:40:05;;;;;;;;;;;;;;;23.69;53.67;100620.50;5049444;28;20278;-75
2022/08/20 09:43:08;;;;;;;;;;;;;;;23.66;52.83;100623.47;5047875;28;20766;-74
2022/08/20 09:46:12;;;;;;;;;;;;;;;23.33;54.00;100628.72;5048760;28;19966;-74
2022/08/20 09:49:15;;;;;;;;;;;;;;;23.31;53.88;100633.34;5047864;28;19928;-75
2022/08/20 09:52:21;;;;;;;;;;;;;;;23.51;53.99;100617.06;5046911;28;20002;-75
2022/08/20 09:55:29;;;;;;;;;;;;;;;23.83;52.04;100609.19;5048464;28;19924;-74
2022/08/20 09:58:36;;;;;;;;;;;;;;;24.20;50.28;100615.06;5049278;28;19920;-74
2022/08/20 10:01:40;;;;;;;;;;;;;;;24.30;47.45;100611.22;5048284;28;19920;-75
2022/08/20 10:04:43;;;;;;;;;;;;;;;24.18;47.30;100617.91;5047613;28;19919;-75
2022/08/20 10:07:46;;;;;;;;;;;;;;;24.27;47.95;100608.88;5044244;28;19924;-75
2022/08/20 10:10:50;;;;;;;;;;;;;;;24.23;47.25;100606.72;5048700;28;19955;-75
2022/08/20 10:13:54;;;;;;;;;;;;;;;23.92;48.03;100623.38;5048026;28;19912;-76
2022/08/20 10:16:57;;;;;;;;;;;;;;;23.85;47.98;100620.53;5048383;28;20429;-75
2022/08/20 10:20:01;;;;;;;;;;;;;;;23.74;48.44;100620.00;5046170;28;19966;-75
2022/08/20 10:23:05;;;;;;;;;;;;;;;23.63;49.81;100618.47;5049191;28;19963;-75
2022/08/20 10:26:08;;;;;;;;;;;;;;;23.83;50.41;100609.19;5048605;28;19939;-75
2022/08/20 10:29:11;;;;;;;;;;;;;;;24.28;49.12;100607.03;5048116;28;19975;-75
2022/08/20 10:32:15;;;;;;;;;;;;;;;24.49;48.04;100603.91;5049894;28;20286;-75
2022/08/20 10:35:19;;;;;;;;;;;;;;;24.45;47.20;100602.59;5032383;28;19924;-75
2022/08/20 10:38:24;;;;;;;;;;;;;;;24.05;48.13;100612.22;5032852;28;19924;-74
2022/08/20 10:41:27;;;;;;;;;;;;;;;24.39;47.70;100619.25;5032780;28;19920;-74
2022/08/20 10:44:31;;;;;;;;;;;;;;;24.53;46.79;100611.41;5032457;28;19966;-74
2022/08/20 10:47:34;;;;;;;;;;;;;;;24.59;47.02;100607.22;5029185;28;19920;-74
2022/08/20 10:50:37;;;;;;;;;;;;;;;24.47;47.05;100600.56;5032354;28;19955;-73
2022/08/20 10:53:40;;;;;;;;;;;;;;;24.44;46.67;100606.22;5031989;28;19959;-74
2022/08/20 10:56:46;;;;;;;;;;;;;;;24.51;44.84;100604.59;5032142;28;19936;-74
2022/08/20 10:59:50;;;;;;;;;;;;;;;24.39;41.41;100606.72;5032416;28;19919;-75
2022/08/20 11:02:54;;;;;;;;;;;;;;;24.57;40.29;100596.72;5031526;28;19923;-76
2022/08/20 11:05:57;;;;;;;;;;;;;;;24.77;39.88;100602.53;5031858;28;19927;-75
2022/08/20 11:09:01;;;;;;;;;;;;;;;25.07;40.95;100594.72;5031793;28;20579;-75
2022/08/20 11:12:05;;;;;;;;;;;;;;;25.19;41.99;100593.38;5031948;28;19962;-75
2022/08/20 11:15:09;;;;;;;;;;;;;;;24.90;41.75;100595.81;5031607;28;19967;-74
2022/08/20 11:18:12;;;;;;;;;;;;;;;24.70;41.87;100606.88;5032662;28;20382;-74
2022/08/20 11:21:16;;;;;;;;;;;;;;;24.53;43.58;100594.53;5032394;28;20495;-75
2022/08/20 11:24:19;;;;;;;;;;;;;;;24.77;43.56;100594.50;5031170;28;19920;-75
2022/08/20 11:27:29;;;;;;;;;;;;;;;24.90;40.51;100590.47;5030930;28;19920;-75
2022/08/20 11:30:34;;;;;;;;;;;;;;;24.97;38.27;100594.94;5030935;28;19971;-74
2022/08/20 11:33:37;;;;;;;;;;;;;;;25.09;37.99;100595.41;5041737;28;20255;-75
2022/08/20 11:36:40;;;;;;;;;;;;;;;25.11;38.41;100596.06;5050932;28;19919;-75
2022/08/20 11:39:44;;;;;;;;;;;;;;;25.10;39.43;100597.06;5051535;28;19982;-74
2022/08/20 11:42:48;;;;;;;;;;;;;;;25.17;37.04;100598.06;5051351;28;20018;-74
2022/08/20 11:45:56;;;;;;;;;;;;;;;25.16;36.73;100593.72;5050356;28;19959;-76
2022/08/20 11:49:02;;;;;;;;;;;;;;;25.25;39.64;100600.72;5050805;28;20012;-75
2022/08/20 11:52:05;;;;;;;;;;;;;;;25.24;39.86;100592.88;5051034;28;20018;-75
2022/08/20 11:55:10;;;;;;;;;;;;;;;25.45;39.19;100592.25;5050326;28;19955;-75
2022/08/20 11:58:16;;;;;;;;;;;;;;;25.52;39.28;100602.06;5050179;28;19920;-76
2022/08/20 12:01:19;;;;;;;;;;;;;;;24.94;39.05;100594.44;5050726;28;19962;-75
2022/08/20 12:04:23;;;;;;;;;;;;;;;24.79;40.04;100595.16;5051440;28;20413;-75
2022/08/20 12:07:27;;;;;;;;;;;;;;;25.02;39.34;100583.72;5050737;28;20247;-75
2022/08/20 12:10:31;;;;;;;;;;;;;;;24.86;39.00;100595.31;5050749;28;20417;-75
2022/08/20 12:13:36;;;;;;;;;;;;;;;25.05;38.06;100588.75;5048933;28;20001;-75
2022/08/20 12:16:39;;;;;;;;;;;;;;;25.32;38.09;100583.97;5037844;28;20295;-74
2022/08/20 12:19:43;;;;;;;;;;;;;;;25.59;37.94;100585.31;5050376;28;20327;-74
2022/08/20 12:22:49;;;;;;;;;;;;;;;25.65;38.36;100590.78;5050917;28;20398;-74
2022/08/20 12:25:52;;;;;;;;;;;;;;;25.50;41.17;100592.56;5050669;28;19920;-74
2022/08/20 12:28:56;;;;;;;;;;;;;;;25.70;41.06;100566.19;5052970;28;20774;-74
2022/08/20 12:32:00;;;;;;;;;;;;;;;25.78;40.88;100575.97;5062672;28;19943;-74
2022/08/20 12:35:04;;;;;;;;;;;;;;;26.04;40.26;100576.50;5070287;28;19923;-74
2022/08/20 12:38:07;;;;;;;;;;;;;;;25.34;39.63;100576.59;5069899;28;19920;-74
2022/08/20 12:41:10;;;;;;;;;;;;;;;25.64;38.69;100585.63;5065700;28;20515;-74
2022/08/20 12:44:14;;;;;;;;;;;;;;;26.05;37.10;100570.13;5050153;28;20388;-74
2022/08/20 12:47:18;;;;;;;;;;;;;;;26.20;36.65;100570.19;5050316;28;19969;-74
2022/08/20 12:50:24;;;;;;;;;;;;;;;26.36;37.20;100575.41;5049508;28;19923;-74
2022/08/20 12:53:28;;;;;;;;;;;;;;;26.13;37.70;100578.13;5050155;28;19942;-74
2022/08/20 12:56:31;;;;;;;;;;;;;;;26.62;36.52;100582.22;5047945;28;19920;-74
2022/08/20 12:59:34;;;;;;;;;;;;;;;26.35;36.24;100580.91;5049692;28;19920;-74
2022/08/20 13:02:39;;;;;;;;;;;;;;;26.70;35.88;100583.97;5049921;28;20058;-74
2022/08/20 13:05:42;;;;;;;;;;;;;;;27.09;34.57;100584.53;5050241;28;20329;-74
2022/08/20 13:08:47;;;;;;;;;;;;;;;26.47;35.59;100582.16;5049071;28;19923;-74
2022/08/20 13:11:54;;;;;;;;;;;;;;;27.17;34.48;100585.47;5030177;28;19940;-74
2022/08/20 13:15:00;;;;;;;;;;;;;;;31.26;27.28;100578.63;5029769;28;19917;-74
2022/08/20 13:18:06;;;;;;;;;;;;;;;34.35;23.20;100588.53;5029972;28;19923;-74
2022/08/20 13:21:10;;;;;;;;;;;;;;;36.52;18.71;100576.97;5029832;28;19962;-75
2022/08/20 13:24:13;;;;;;;;;;;;;;;36.15;19.13;100582.09;5033549;28;19924;-75
2022/08/20 13:27:18;;;;;;;;;;;;;;;38.74;17.58;100575.09;5049500;28;19924;-75
2022/08/20 13:30:22;;;;;;;;;;;;;;;38.07;18.23;100570.28;5050195;28;19924;-75
2022/08/20 13:33:28;;;;;;;;;;;;;;;38.52;17.02;100580.69;5049861;28;19923;-75
2022/08/20 13:36:34;;;;;;;;;;;;;;;37.52;17.93;100569.47;5049704;28;19924;-75
2022/08/20 13:39:38;;;;;;;;;;;;;;;33.40;20.54;100581.16;5049040;28;20274;-75
2022/08/20 13:42:41;;;;;;;;;;;;;;;35.35;19.11;100573.03;5049425;28;19993;-76
2022/08/20 13:45:45;;;;;;;;;;;;;;;39.38;16.76;100563.03;5049499;28;20034;-75
2022/08/20 13:48:49;;;;;;;;;;;;;;;37.47;16.67;100583.09;5048884;28;20012;-75
2022/08/20 13:51:52;;;;;;;;;;;;;;;38.90;16.84;100570.53;5049139;28;20047;-75
2022/08/20 13:54:56;;;;;;;;;;;;;;;35.29;19.06;100572.13;5029809;28;19919;-75
2022/08/20 13:58:02;;;;;;;;;;;;;;;38.51;16.86;100567.28;5029428;28;19920;-75
2022/08/20 14:01:06;;;;;;;;;;;;;;;34.80;20.35;100579.78;5029328;28;20308;-74
2022/08/20 14:04:10;;;;;;;;;;;;;;;38.56;17.44;100572.78;5029279;28;20426;-75
2022/08/20 14:07:31;;;;;;;;;;;;;;;39.30;15.80;100577.22;5036046;28;19923;-76
2022/08/20 14:10:35;;;;;;;;;;;;;;;38.82;16.64;100576.47;5052361;28;19970;-74
2022/08/20 14:13:40;;;;;;;;;;;;;;;40.42;14.88;100571.78;5052617;28;19919;-76
2022/08/20 14:16:43;;;;;;;;;;;;;;;39.27;17.05;100572.28;5052752;28;19958;-76
2022/08/20 14:19:47;;;;;;;;;;;;;;;41.16;14.89;100572.09;5051566;28;19919;-75
2022/08/20 14:22:50;;;;;;;;;;;;;;;37.90;17.80;100567.63;5052228;28;20420;-74
2022/08/20 14:25:54;;;;;;;;;;;;;;;36.81;18.46;100571.34;5053230;28;19923;-75
2022/08/20 14:28:57;;;;;;;;;;;;;;;30.70;25.58;100584.59;5053192;28;19929;-75
2022/08/20 14:32:01;;;;;;;;;;;;;;;32.80;23.53;100575.63;5052768;28;19931;-75
2022/08/20 14:35:05;;;;;;;;;;;;;;;32.03;23.89;100572.38;5052653;28;19923;-74
2022/08/20 14:38:13;;;;;;;;;;;;;;;32.25;24.50;100570.13;5052277;28;19919;-75
2022/08/20 14:41:17;;;;;;;;;;;;;;;32.64;23.59;100568.94;5052057;28;19959;-75
2022/08/20 14:44:20;;;;;;;;;;;;;;;32.80;24.78;100575.63;5063371;28;19939;-75
2022/08/20 14:47:29;;;;;;;;;;;;;;;30.80;26.10;100595.81;5051880;28;19923;-74
2022/08/20 14:50:33;;;;;;;;;;;;;;;28.74;29.08;100599.84;5051036;28;19923;-75
2022/08/20 14:53:39;;;;;;;;;;;;;;;28.95;29.31;100596.25;5052892;28;19920;-74
2022/08/20 14:56:46;;;;;;;;;;;;;;;29.28;29.50;100590.22;5052969;28;20118;-74
2022/08/20 14:59:51;;;;;;;;;;;;;;;28.17;31.12;100593.56;5052860;28;20287;-74
2022/08/20 15:02:55;;;;;;;;;;;;;;;29.22;30.84;100581.06;5051954;28;20034;-75
2022/08/20 15:05:58;;;;;;;;;;;;;;;29.33;29.34;100593.97;5050377;28;19939;-74
2022/08/20 15:09:01;;;;;;;;;;;;;;;29.58;28.66;100596.09;5051364;28;19970;-74
2022/08/20 15:12:05;;;;;;;;;;;;;;;28.08;29.83;100596.59;5052405;28;19963;-74
2022/08/20 15:15:09;;;;;;;;;;;;;;;27.36;31.02;100595.63;5052775;28;19997;-74
2022/08/20 15:18:13;;;;;;;;;;;;;;;28.18;30.90;100589.06;5050818;28;19970;-74
2022/08/20 15:21:18;;;;;;;;;;;;;;;27.67;30.88;100597.22;5052029;28;20550;-74
2022/08/20 15:24:21;;;;;;;;;;;;;;;27.24;31.52;100607.84;5051938;28;19967;-74
2022/08/20 15:27:25;;;;;;;;;;;;;;;27.54;31.98;100612.16;5051556;28;19982;-74
2022/08/20 15:30:29;;;;;;;;;;;;;;;28.57;30.92;100599.31;5052378;28;20268;-74
2022/08/20 15:33:33;;;;;;;;;;;;;;;28.96;29.13;100593.34;5038989;28;19939;-75
2022/08/20 15:36:37;;;;;;;;;;;;;;;28.54;29.65;100594.31;5051846;28;19919;-74
2022/08/20 15:39:42;;;;;;;;;;;;;;;28.03;30.49;100600.69;5051866;28;20567;-74
2022/08/20 15:42:45;;;;;;;;;;;;;;;27.93;30.49;100592.13;5031211;28;19924;-74
2022/08/20 15:45:49;;;;;;;;;;;;;;;27.38;31.22;100604.31;5038563;28;20375;-74
2022/08/20 15:48:52;;;;;;;;;;;;;;;27.50;30.09;100597.41;5050537;28;19969;-74
2022/08/20 15:51:56;;;;;;;;;;;;;;;27.88;30.74;100605.31;5051455;28;20008;-74
2022/08/20 15:55:00;;;;;;;;;;;;;;;27.58;31.01;100594.63;5051612;28;19920;-74
2022/08/20 15:58:16;;;;;;;;;;;;;;;27.62;30.74;100599.63;5051211;28;19934;-74
2022/08/20 16:01:38;;;;;;;;;;;;;;;28.02;31.01;100595.53;5050894;28;20757;-74
2022/08/20 16:05:07;;;;;;;;;;;;;;;28.01;30.10;100585.78;5050753;28;19920;-74